• Join FlightAware (Why Join?)
  • Login
  • US Flag 
09:55AM EST


 

Airport Tracker/Info


-or-


 

Live Flight TrackerFlight Track Log ✈ N813JE ✈ 12-Oct-2013 ✈ KSAV - KHPN

Flight Track Log - Related Links

Times and Time Zones

All times are in EDT time to prevent confusion due to time zone crossing. See the N813JE flight status page for this flight to view local times or setup timezone preferences in your user account.

Time Position Orientation Groundspeed Altitude Reporting Facility
EDT Latitude Longitude Course Direction KTS MPH feet Rate Location/Type
04:27PM 32.3540 -81.0361 26° Northeast  Level Estimated
04:28PM 32.3941 -81.0135 25° Northeast  Level FlightAware Approximate
04:29PM 32.4342 -80.9908 25° Northeast  Level FlightAware Approximate
04:29PM 32.3875 -81.0942 25° Northeast 129 148 7,300  Level Jacksonville Center
04:30PM 32.4743 -80.9682 25° Northeast  Level FlightAware Approximate
04:31PM 32.5144 -80.9455 25° Northeast  Level FlightAware Approximate
04:31PM 32.4254 -81.0300 55° Northeast  Level FlightAware Approximate
04:31PM 32.4692 -81.1000 55° Northeast 116 133 9,000  Level Jacksonville Center
04:32PM 32.5545 -80.9228 26° Northeast  Level FlightAware Approximate
04:32PM 32.4961 -81.0872 22° Northeast 128 147 9,500  Level Jacksonville Center
04:33PM 32.5921 -80.8948 25° Northeast  Level Estimated
04:33PM 32.5250 -81.0694 27° Northeast 122 140 10,100  Level Jacksonville Center
04:34PM 32.6325 -80.8727 25° Northeast  Level FlightAware Approximate
04:34PM 32.5581 -81.0439 33° Northeast 122 140 10,700  Level Jacksonville Center
04:35PM 32.5892 -81.0236 29° Northeast 116 133 11,000 120 Climbing Jacksonville Center
04:36PM 32.6242 -80.9983 31° Northeast 138 159 11,000  Level Jacksonville Center
04:37PM 32.6592 -80.9728 32° Northeast 145 167 11,000  Level Jacksonville Center
04:38PM 32.6986 -80.9447 31° Northeast 150 173 11,000  Level Jacksonville Center
04:39PM 32.7356 -80.9194 30° Northeast 150 173 11,000  Level Jacksonville Center
04:40PM 32.7728 -80.8964 28° Northeast 150 173 11,000  Level Jacksonville Center
04:41PM 32.8081 -80.8708 31° Northeast 150 173 11,000  Level Jacksonville Center
04:42PM 32.8450 -80.8428 33° Northeast 150 173 11,000  Level Jacksonville Center
04:43PM 32.8822 -80.8172 30° Northeast 150 173 11,000  Level Jacksonville Center
04:44PM 32.9172 -80.7917 32° Northeast 150 173 11,000  Level Jacksonville Center
04:45PM 32.9564 -80.7636 31° Northeast 150 173 11,000  Level Jacksonville Center
04:46PM 32.9958 -80.7378 29° Northeast 150 173 11,000  Level Jacksonville Center
04:47PM 33.0308 -80.7122 31° Northeast 150 173 11,000  Level Jacksonville Center
04:48PM 33.0678 -80.6842 32° Northeast 150 173 11,000  Level Jacksonville Center
04:49PM 33.1069 -80.6558 31° Northeast 150 173 11,000  Level Jacksonville Center
04:50PM 33.1419 -80.6300 32° Northeast 150 173 11,000  Level Jacksonville Center
04:51PM 33.1811 -80.6042 29° Northeast 150 173 11,000  Level Jacksonville Center
04:52PM 33.2183 -80.5786 30° Northeast 150 173 11,000  Level Jacksonville Center
04:53PM 33.2556 -80.5528 30° Northeast 150 173 11,000  Level Jacksonville Center
04:54PM 33.2864 -80.5294 32° Northeast 150 173 11,000  Level Jacksonville Center
04:55PM 33.3275 -80.4986 32° Northeast 156 180 11,000  Level Jacksonville Center
04:56PM 33.3667 -80.4703 31° Northeast 156 180 11,000  Level Jacksonville Center
04:57PM 33.4058 -80.4442 29° Northeast 156 180 11,000  Level Jacksonville Center
04:58PM 33.4450 -80.4183 29° Northeast 156 180 11,000  Level Jacksonville Center
04:59PM 33.4819 -80.3897 33° Northeast 156 180 11,000  Level Jacksonville Center
05:00PM 33.5211 -80.3639 29° Northeast 156 180 11,000  Level Jacksonville Center
05:01PM 33.5600 -80.3353 32° Northeast 156 180 11,000  Level Jacksonville Center
05:02PM 33.5969 -80.3067 33° Northeast 156 180 11,000  Level Jacksonville Center
05:03PM 33.6383 -80.2806 28° Northeast 156 180 11,000  Level Jacksonville Center
05:04PM 33.6772 -80.2494 34° Northeast 161 185 11,000  Level Jacksonville Center
05:05PM 33.7142 -80.2211 33° Northeast 161 185 11,000  Level Jacksonville Center
05:06PM 33.7533 -80.1922 32° Northeast 161 185 11,000  Level Jacksonville Center
05:07PM 33.7922 -80.1636 31° Northeast 161 185 11,000  Level Jacksonville Center
05:08PM 33.8314 -80.1375 29° Northeast 161 185 11,000  Level Jacksonville Center
05:09PM 33.8725 -80.1086 30° Northeast 161 185 11,000  Level Jacksonville Center
05:10PM 33.9117 -80.0825 29° Northeast 161 185 11,000  Level Jacksonville Center
05:11PM 33.9483 -80.0511 35° Northeast 166 191 11,000  Level Jacksonville Center
05:12PM 33.9875 -80.0247 29° Northeast 166 191 11,000  Level Jacksonville Center
05:13PM 34.0264 -79.9961 31° Northeast 161 185 11,000  Level Jacksonville Center
05:14PM 34.0653 -79.9672 32° Northeast 161 185 11,000  Level Jacksonville Center
05:15PM 34.1022 -79.9383 33° Northeast 161 185 11,000  Level Jacksonville Center
05:16PM 34.1414 -79.9119 29° Northeast 161 185 11,000  Level Jacksonville Center
05:17PM 34.1803 -79.8856 29° Northeast 161 185 11,000  Level Jacksonville Center
05:18PM 34.2172 -79.8542 35° Northeast 161 185 11,000  Level Jacksonville Center
05:19PM 34.2561 -79.8250 32° Northeast 161 185 11,000  Level Jacksonville Center
05:22PM 34.3539 -79.7525 31° Northeast 164 189 11,000  Level Washington Center
05:23PM 34.3944 -79.7269 27° Northeast 164 189 11,000  Level Washington Center
05:24PM 34.4311 -79.6961 35° Northeast 164 189 11,000  Level Washington Center
05:25PM 34.4675 -79.6703 30° Northeast 164 189 11,000  Level Washington Center
05:26PM 34.5103 -79.6369 33° Northeast 169 194 11,000  Level Washington Center
05:27PM 34.5444 -79.6111 32° Northeast 164 189 11,000  Level Washington Center
05:28PM 34.5872 -79.5778 33° Northeast 164 189 11,000  Level Washington Center
05:29PM 34.6236 -79.5544 28° Northeast 164 189 11,000  Level Washington Center
05:30PM 34.6664 -79.5211 33° Northeast 164 189 11,000  Level Washington Center
05:31PM 34.7006 -79.4950 32° Northeast 164 189 11,000  Level Washington Center
05:32PM 34.7456 -79.4617 31° Northeast 164 189 11,000  Level Washington Center
05:33PM 34.7819 -79.4356 31° Northeast 164 189 11,000  Level Washington Center
05:34PM 34.8247 -79.4047 31° Northeast 164 189 11,000  Level Washington Center
05:35PM 34.8653 -79.3764 30° Northeast 164 189 11,000  Level Washington Center
05:36PM 34.9036 -79.3453 34° Northeast 164 189 11,000  Level Washington Center
05:37PM 34.9422 -79.3167 31° Northeast 164 189 11,000  Level Washington Center
05:38PM 34.9806 -79.2878 32° Northeast 164 189 11,000  Level Washington Center
05:39PM 35.0211 -79.2594 30° Northeast 164 189 11,000  Level Washington Center
05:40PM 35.0594 -79.2306 32° Northeast 164 189 11,000  Level Washington Center
05:41PM 35.0958 -79.2017 33° Northeast 164 189 11,000  Level Washington Center
05:42PM 35.1364 -79.1706 32° Northeast 164 189 11,000  Level Washington Center
05:43PM 35.1750 -79.1417 31° Northeast 164 189 11,000  Level Washington Center
05:44PM 35.2133 -79.1131 31° Northeast 164 189 11,000  Level Washington Center
05:45PM 35.2517 -79.0842 32° Northeast 164 189 11,000  Level Washington Center
05:46PM 35.2922 -79.0553 30° Northeast 164 189 11,000  Level Washington Center
05:47PM 35.3264 -79.0289 32° Northeast 161 185 11,000  Level Washington Center
05:47PM 35.3283 -79.0289 360° North 164 189 11,000  Level Washington Center
05:48PM 35.3561 -79.0072 32° Northeast 160 184 11,000  Level Washington Center
05:48PM 35.3669 -79.0000 29° Northeast 164 189 11,000  Level Washington Center
05:49PM 35.4053 -78.9686 34° Northeast 164 189 11,000  Level Washington Center
05:49PM 35.4289 -78.9492 34° Northeast 161 185 11,000  Level Washington Center
05:50PM 35.4417 -78.9394 32° Northeast 164 189 11,000  Level Washington Center
05:51PM 35.4800 -78.9106 32° Northeast 159 183 11,000  Level Washington Center
05:51PM 35.4819 -78.9106 360° North 161 185 11,000  Level Washington Center
05:52PM 35.5078 -78.8886 35° Northeast 161 185 11,000  Level Washington Center
05:52PM 35.5183 -78.8814 29° Northeast 159 183 11,000  Level Washington Center
05:53PM 35.5439 -78.8647 28° Northeast 162 186 11,000  Level Washington Center
05:53PM 35.5567 -78.8522 39° Northeast 159 183 11,000  Level Washington Center
05:54PM 35.5886 -78.8281 32° Northeast 162 186 11,000  Level Washington Center
05:54PM 35.5950 -78.8233 31° Northeast 159 183 11,000  Level Washington Center
05:55PM 35.6333 -78.7942 32° Northeast 159 183 11,000  Level Washington Center
05:56PM 35.6653 -78.7700 32° Northeast 162 186 11,000  Level Washington Center
05:56PM 35.6739 -78.7650 25° Northeast 159 183 11,000  Level Washington Center
05:57PM 35.6994 -78.7431 35° Northeast 160 184 11,000  Level Washington Center
05:58PM 35.7442 -78.7092 32° Northeast 158 182 11,000  Level Washington Center
05:59PM 35.7803 -78.6797 33° Northeast 159 183 11,000  Level Washington Center
06:00PM 35.8144 -78.6528 33° Northeast 158 182 11,000  Level Washington Center
06:01PM 35.8547 -78.6264 28° Northeast 158 182 11,000  Level Washington Center
06:02PM 35.8867 -78.5994 34° Northeast 158 182 11,000  Level Washington Center
06:03PM 35.9269 -78.5700 31° Northeast 158 182 11,000  Level Washington Center
06:04PM 35.9592 -78.5406 36° Northeast 158 182 11,000  Level Washington Center
06:05PM 35.9953 -78.5161 29° Northeast 157 181 11,000  Level Washington Center
06:06PM 36.0333 -78.4867 32° Northeast 159 183 11,000  Level Washington Center
06:06PM 36.0611 -78.4672 30° Northeast 161 185 11,000  Level Washington Center
06:07PM 36.0931 -78.4400 35° Northeast 172 198 11,000  Level Washington Center
06:08PM 36.1356 -78.4056 33° Northeast 166 191 11,000  Level Washington Center
06:09PM 36.1675 -78.3811 32° Northeast 161 185 11,000  Level Washington Center
06:10PM 36.2119 -78.3492 30° Northeast 161 185 11,000  Level Washington Center
06:11PM 36.2439 -78.3219 34° Northeast 161 185 11,000  Level Washington Center
06:12PM 36.2864 -78.2900 31° Northeast 161 185 11,000  Level Washington Center
06:13PM 36.3203 -78.2628 33° Northeast 161 185 11,000  Level Washington Center
06:14PM 36.3628 -78.2333 29° Northeast 161 185 11,000  Level Washington Center
06:15PM 36.3967 -78.2058 33° Northeast 161 185 11,000  Level Washington Center
06:16PM 36.4350 -78.1764 32° Northeast 161 185 11,000  Level Washington Center
06:17PM 36.4711 -78.1464 34° Northeast 166 191 11,000  Level Washington Center
06:18PM 36.5092 -78.1142 34° Northeast 166 191 11,000  Level Washington Center
06:19PM 36.5475 -78.0844 32° Northeast 166 191 11,000  Level Washington Center
06:20PM 36.5836 -78.0544 34° Northeast 161 185 11,000  Level Washington Center
06:21PM 36.6217 -78.0247 32° Northeast 161 185 11,000  Level Washington Center
06:22PM 36.6578 -77.9972 31° Northeast 161 185 11,000  Level Washington Center
06:23PM 36.6958 -77.9700 30° Northeast 155 178 11,000  Level Washington Center
06:24PM 36.7319 -77.9372 36° Northeast 150 173 11,000  Level Washington Center
06:25PM 36.7678 -77.9100 31° Northeast 150 173 11,000  Level Washington Center
06:26PM 36.8039 -77.8797 34° Northeast 150 173 11,000  Level Washington Center
06:27PM 36.8419 -77.8497 32° Northeast 150 173 11,000  Level Washington Center
06:28PM 36.8781 -77.8197 34° Northeast 150 173 11,000  Level Washington Center
06:29PM 36.9161 -77.7922 30° Northeast 150 173 11,000  Level Washington Center
06:30PM 36.9542 -77.7622 32° Northeast 150 173 11,000  Level Washington Center
06:31PM 36.9903 -77.7319 34° Northeast 150 173 11,000  Level Washington Center
06:32PM 37.0283 -77.7017 32° Northeast 150 173 11,000  Level Washington Center
06:33PM 37.0644 -77.6742 31° Northeast 150 173 11,000  Level Washington Center
06:34PM 37.1025 -77.6439 32° Northeast 150 173 11,000  Level Washington Center
06:35PM 37.1406 -77.6111 34° Northeast 150 173 11,000  Level Washington Center
06:36PM 37.1806 -77.5783 33° Northeast 150 173 11,000  Level Washington Center
06:37PM 37.2186 -77.5478 33° Northeast 150 173 11,000  Level Washington Center
06:38PM 37.2547 -77.5200 31° Northeast 150 173 11,000  Level Washington Center
06:39PM 37.2947 -77.4897 31° Northeast 150 173 11,000  Level Washington Center
06:40PM 37.3306 -77.4594 34° Northeast 150 173 11,000  Level Washington Center
06:41PM 37.3686 -77.4289 33° Northeast 150 173 11,000  Level Washington Center
06:42PM 37.4047 -77.3983 34° Northeast 150 173 11,000  Level Washington Center
06:43PM 37.4425 -77.3678 33° Northeast 150 173 11,000  Level Washington Center
06:44PM 37.4786 -77.3372 34° Northeast 150 173 11,000  Level Washington Center
06:45PM 37.5144 -77.3067 34° Northeast 150 173 11,000  Level Washington Center
06:46PM 37.5483 -77.2736 38° Northeast 150 173 11,000  Level Washington Center
06:47PM 37.5822 -77.2375 40° Northeast 150 173 11,000  Level Washington Center
06:48PM 37.6181 -77.2042 36° Northeast 150 173 11,000  Level Washington Center
06:49PM 37.6519 -77.1681 40° Northeast 155 178 11,000  Level Washington Center
06:50PM 37.6858 -77.1322 40° Northeast 155 178 11,000  Level Washington Center
06:51PM 37.7194 -77.0986 38° Northeast 155 178 11,000  Level Washington Center
06:52PM 37.7533 -77.0625 40° Northeast 155 178 11,000  Level Washington Center
06:53PM 37.7872 -77.0292 38° Northeast 155 178 11,000  Level Washington Center
06:54PM 37.8208 -76.9956 38° Northeast 155 178 11,000  Level Washington Center
06:55PM 37.8547 -76.9594 40° Northeast 155 178 11,000  Level Washington Center
06:56PM 37.8864 -76.9258 40° Northeast 160 184 11,000  Level Washington Center
06:57PM 37.9222 -76.8922 36° Northeast 160 184 11,000  Level Washington Center
06:58PM 37.9558 -76.8586 38° Northeast 160 184 11,000  Level Washington Center
06:59PM 37.9897 -76.8222 40° Northeast 160 184 11,000  Level Washington Center
07:00PM 38.0214 -76.7883 40° Northeast 160 184 11,000  Level Washington Center
07:01PM 38.0550 -76.7547 38° Northeast 160 184 11,000  Level Washington Center
07:02PM 38.0886 -76.7183 40° Northeast 160 184 11,000  Level Washington Center
07:03PM 38.1222 -76.6844 38° Northeast 160 184 11,000  Level Washington Center
07:04PM 38.1539 -76.6506 40° Northeast 160 184 11,000  Level Washington Center
07:05PM 38.1875 -76.6167 38° Northeast 155 178 11,100  Climbing Washington Center
07:06PM 38.2211 -76.5828 38° Northeast 155 178 11,100  Level Washington Center
07:07PM 38.2550 -76.5464 40° Northeast 155 178 11,100  Level Washington Center
07:08PM 38.2886 -76.5122 39° Northeast 155 178 11,100  Level Washington Center
07:09PM 38.3178 -76.4861 35° Northeast 155 178 11,100  Level Washington Center
07:10PM 38.3514 -76.4522 38° Northeast 150 173 11,100  Level Washington Center
07:11PM 38.3850 -76.4181 39° Northeast 150 173 11,100 -60 Level Washington Center
07:12PM 38.4186 -76.3814 41° Northeast 150 173 11,000 -360 Descending Washington Center
07:13PM 38.4522 -76.3472 39° Northeast 150 173 10,500 -540 Descending Washington Center
07:14PM 38.4881 -76.3078 41° Northeast 156 180 10,000 -540 Descending Washington Center
07:15PM 38.5236 -76.2711 39° Northeast 161 185 9,500 -480 Descending Washington Center
07:16PM 38.5614 -76.2342 37° Northeast 161 185 9,100 -240 Descending Washington Center
07:17PM 38.5950 -76.1972 41° Northeast 161 185 9,100  Level Washington Center
07:18PM 38.6264 -76.1631 40° Northeast 156 180 9,100  Level Washington Center
07:19PM 38.6642 -76.1261 37° Northeast 161 185 9,100 -60 Level Washington Center
07:20PM 38.6956 -76.0917 41° Northeast 156 180 9,000 -240 Descending Washington Center
07:21PM 38.7289 -76.0547 41° Northeast 156 180 8,700 -420 Descending Washington Center
07:22PM 38.7644 -76.0203 37° Northeast 161 185 8,200 -300 Descending Washington Center
07:23PM 38.7981 -75.9806 43° Northeast 161 185 8,100 -120 Descending Washington Center
07:24PM 38.8314 -75.9461 39° Northeast 161 185 8,000 -60 Descending Washington Center
07:25PM 38.8567 -75.9061 51° Northeast 151 174 8,000  Level Washington Center
07:26PM 38.8817 -75.8664 51° Northeast 145 167 8,000  Level Washington Center
07:27PM 38.9069 -75.8317 47° Northeast 135 155 8,000  Level Washington Center
07:28PM 38.9319 -75.7892 53° Northeast 135 155 8,000  Level Washington Center
07:29PM 38.9550 -75.7492 53° Northeast 135 155 8,000  Level Washington Center
07:30PM 38.9819 -75.7092 49° Northeast 135 155 8,000 -180 Level Washington Center
07:31PM 39.0069 -75.6664 53° Northeast 135 155 7,700 -360 Descending Washington Center
07:32PM 39.0364 -75.6236 48° Northeast 140 161 7,300 -120 Descending Washington Center
07:34PM 39.0862 -75.5895 28° Northeast  Level FlightAware Approximate
07:41PM 39.2330 -75.2978 84° East  Level FlightAware Approximate
07:42PM 39.2375 -75.2421 84° East  Level FlightAware Approximate
07:43PM 39.2419 -75.1864 84° East  Level FlightAware Approximate
07:44PM 39.2463 -75.1306 84° East  Level FlightAware Approximate
07:45PM 39.2500 -75.0748 90° East  Level FlightAware Approximate
07:46PM 39.2500 -75.0188 90° East  Level FlightAware Approximate
07:47PM 39.2500 -74.9628 90° East  Level FlightAware Approximate
07:48PM 39.2682 -74.9137 57° Northeast  Level FlightAware Approximate
07:49PM 39.2918 -74.8666 57° Northeast  Level FlightAware Approximate
07:50PM 39.3153 -74.8195 57° Northeast  Level FlightAware Approximate
07:51PM 39.3388 -74.7724 57° Northeast  Level FlightAware Approximate
07:52PM 39.3632 -74.7259 55° Northeast  Level FlightAware Approximate
07:53PM 39.3882 -74.6801 55° Northeast  Level FlightAware Approximate
07:54PM 39.4132 -74.6342 55° Northeast  Level FlightAware Approximate
07:55PM 39.4532 -74.6124 38° Northeast  Level Estimated
07:56PM 39.4953 -74.6263 346° North  Level FlightAware Approximate
07:57PM 39.5350 -74.6036 38° Northeast  Level Estimated
07:58PM 39.5747 -74.5810 38° Northeast  Level Estimated
07:59PM 39.6167 -74.5668 15° North  Level FlightAware Approximate
08:00PM 39.6564 -74.5439 34° Northeast  Level Estimated
08:01PM 39.6934 -74.5145 31° Northeast  Level FlightAware Approximate
08:02PM 39.7305 -74.4851 31° Northeast  Level FlightAware Approximate
08:03PM 39.7675 -74.4557 31° Northeast  Level FlightAware Approximate
08:04PM 39.8074 -74.4333 37° Northeast  Level Estimated
08:05PM 39.8415 -74.3984 38° Northeast  Level FlightAware Approximate
08:06PM 39.8756 -74.3635 38° Northeast  Level FlightAware Approximate
08:07PM 39.9098 -74.3285 38° Northeast  Level FlightAware Approximate
08:07PM 40.0500 -74.5500 303° West 162 186 5,000  Level New York TRACON
08:08PM 39.9439 -74.2935 38° Northeast  Level FlightAware Approximate
08:08PM 40.1000 -74.5333 14° North 173 199 4,600  Level New York TRACON
08:09PM 39.9780 -74.2585 38° Northeast  Level FlightAware Approximate
08:09PM 40.1333 -74.5167 21° North 166 191 4,100  Level New York TRACON
08:10PM 40.0121 -74.2234 38° Northeast  Level FlightAware Approximate
08:10PM 40.1833 -74.5000 14° North 163 188 3,500  Level New York TRACON
08:11PM 40.0461 -74.1883 38° Northeast  Level FlightAware Approximate
08:11PM 40.2333 -74.5333 333° Northwest 193 222 3,100  Level New York TRACON
08:12PM 40.0948 -74.1729 303° West  Level FlightAware Approximate
08:12PM 40.2667 -74.5667 323° Northwest 190 219 2,900  Level New York TRACON
08:13PM 40.3167 -74.5833 346° North 166 191 2,900  Level New York TRACON
08:14PM 40.3500 -74.5833 360° North 152 175 2,900  Level New York TRACON
08:15PM 40.4000 -74.5833 360° North 163 188 2,900  Level New York TRACON
08:16PM 40.4500 -74.5833 360° North 159 183 2,900  Level New York TRACON
08:17PM 40.4833 -74.5833 360° North 151 174 2,900  Level New York TRACON
08:18PM 40.5333 -74.5667 14° North 153 176 2,900  Level New York TRACON
08:19PM 40.5667 -74.5667 360° North 148 170 2,900  Level New York TRACON
08:20PM 40.6167 -74.5667 360° North 152 175 2,900  Level New York TRACON
08:21PM 40.6333 -74.5500 37° Northeast 133 153 3,000  Climbing New York TRACON
08:22PM 40.6833 -74.5167 27° Northeast 146 168 3,000  Level New York TRACON
08:23PM 40.7167 -74.5000 21° North 137 158 3,000  Level New York TRACON
08:24PM 40.7333 -74.4667 57° Northeast 137 158 3,000  Level New York TRACON
08:25PM 40.7667 -74.4333 37° Northeast 134 154 3,000  Level New York TRACON
08:26PM 40.8000 -74.4167 21° North 135 155 3,000  Level New York TRACON
08:27PM 40.8333 -74.3833 37° Northeast 139 160 3,000  Level New York TRACON
08:28PM 40.8667 -74.3500 37° Northeast 127 146 3,000  Level New York TRACON
08:29PM 40.8833 -74.3167 57° Northeast 121 139 3,000  Level New York TRACON
08:30PM 40.9000 -74.2833 57° Northeast 133 153 3,000  Level New York TRACON
08:31PM 40.9167 -74.2333 66° East 131 151 3,000  Level New York TRACON
08:32PM 40.9333 -74.2000 56° Northeast 121 139 3,000  Level New York TRACON
08:33PM 40.9667 -74.1667 37° Northeast 139 160 3,000  Level New York TRACON
08:34PM 40.9833 -74.1167 66° East 137 158 3,000  Level New York TRACON
08:35PM 41.0000 -74.0667 66° East 143 165 3,000  Level New York TRACON
08:36PM 41.0167 -74.0333 56° Northeast 143 165 3,000  Level New York TRACON
08:37PM 41.0333 -73.9833 66° East 142 163 3,000  Level New York TRACON
08:38PM 41.0500 -73.9500 56° Northeast 139 160 3,000 -60 Level New York TRACON
08:39PM 41.0833 -73.9000 48° Northeast 140 161 2,900 -480 Descending New York TRACON
08:40PM 41.1000 -73.8667 56° Northeast 133 153 2,100 -480 Descending New York TRACON
08:41PM 41.1167 -73.8167 66° East 119 137 2,000 -60 Descending New York TRACON
08:42PM 41.1500 -73.8333 339° North 156 180 2,000  Level New York TRACON
08:43PM 41.1667 -73.8833 294° West 157 181 2,000  Level New York TRACON
08:44PM 41.2000 -73.8833 360° North 136 157 2,000  Level New York TRACON
08:45PM 41.1833 -73.8500 124° Southeast 120 138 2,000  Level New York TRACON
08:46PM 41.1833 -73.8000 90° East 128 147 2,000  Level New York TRACON
08:47PM 41.1500 -73.7667 143° Southeast 106 122 2,000 -240 Level New York TRACON
08:48PM 41.1333 -73.7500 143° Southeast 99 114 1,600 -480 Descending New York TRACON
08:49PM 41.1000 -73.7333 159° South 102 117 1,100 -540 Descending New York TRACON
08:50PM 41.0833 -73.7167 143° Southeast 91 105 600 -540 Descending New York TRACON